createdAt,value
2018-02-02T00:01:05.576Z,17.54
2018-02-02T00:02:14.546Z,17.55
2018-02-02T00:03:23.517Z,17.49
2018-02-02T00:05:41.328Z,17.55
2018-02-02T00:06:50.415Z,17.54
2018-02-02T00:07:59.385Z,17.55
2018-02-02T00:09:08.087Z,17.52
2018-02-02T00:10:17.325Z,17.52
2018-02-02T00:11:26.027Z,17.52
2018-02-02T00:12:35.000Z,17.52
2018-02-02T00:13:43.969Z,17.52
2018-02-02T00:14:52.945Z,17.52
2018-02-02T00:16:02.185Z,17.51
2018-02-02T00:17:10.888Z,17.52
2018-02-02T00:18:19.590Z,17.52
2018-02-02T00:19:28.558Z,17.54
2018-02-02T00:20:37.530Z,17.55
2018-02-02T00:21:46.497Z,17.52
2018-02-02T00:22:55.735Z,17.55
2018-02-02T00:24:04.435Z,17.48
2018-02-02T00:25:13.136Z,17.51
2018-02-02T00:26:21.840Z,17.51
2018-02-02T00:27:30.814Z,17.55
2018-02-02T00:28:40.321Z,17.52
2018-02-02T00:29:49.561Z,17.48
2018-02-02T00:30:58.534Z,17.51
2018-02-02T00:32:07.508Z,17.54
2018-02-02T00:33:17.013Z,17.44
2018-02-02T00:34:26.251Z,17.49
2018-02-02T00:35:35.487Z,17.49
2018-02-02T00:36:44.725Z,17.46
2018-02-02T00:37:53.432Z,17.49
2018-02-02T00:39:02.402Z,17.43
2018-02-02T00:40:11.640Z,17.48
2018-02-02T00:41:20.613Z,17.43
2018-02-02T00:42:29.851Z,17.43
2018-02-02T00:43:38.823Z,17.49
2018-02-02T00:44:47.798Z,17.48
2018-02-02T00:45:57.309Z,17.49
2018-02-02T00:47:06.288Z,17.48
2018-02-02T00:48:15.260Z,17.48
2018-02-02T00:49:24.231Z,17.43
2018-02-02T00:50:33.205Z,17.41
2018-02-02T00:51:41.913Z,17.55
2018-02-02T00:52:50.882Z,17.51
2018-02-02T00:54:00.121Z,17.46
2018-02-02T00:55:09.359Z,17.48
2018-02-02T00:56:18.063Z,17.44
2018-02-02T00:57:26.766Z,17.51
2018-02-02T00:58:36.007Z,17.44
2018-02-02T00:59:45.244Z,17.49
2018-02-02T01:00:54.216Z,17.49
2018-02-02T01:02:03.510Z,17.44
2018-02-02T01:03:12.216Z,17.44
2018-02-02T01:04:21.185Z,17.46
2018-02-02T01:05:29.890Z,17.43
2018-02-02T01:06:39.129Z,17.44
2018-02-02T01:07:48.098Z,17.46
2018-02-02T01:08:56.803Z,17.43
2018-02-02T01:10:05.786Z,17.38
2018-02-02T01:11:14.757Z,17.43
2018-02-02T01:12:23.463Z,17.41
2018-02-02T01:13:32.168Z,17.4
2018-02-02T01:14:41.410Z,17.43
2018-02-02T01:15:51.182Z,17.43
2018-02-02T01:17:00.419Z,17.43
2018-02-02T01:18:09.393Z,17.36
2018-02-02T01:19:18.362Z,17.34
2018-02-02T01:20:27.062Z,17.37
2018-02-02T01:21:36.031Z,17.4
2018-02-02T01:22:45.004Z,17.44
2018-02-02T01:23:53.979Z,17.43
2018-02-02T01:25:03.223Z,17.4
2018-02-02T01:26:11.926Z,17.37
2018-02-02T01:27:20.893Z,17.4
2018-02-02T01:28:29.861Z,17.38
2018-02-02T01:29:38.837Z,17.37
2018-02-02T01:30:47.538Z,17.4
2018-02-02T01:31:56.244Z,17.4
2018-02-02T01:33:05.482Z,17.34
2018-02-02T01:34:14.185Z,17.38
2018-02-02T01:35:23.156Z,17.34
2018-02-02T01:36:31.860Z,17.37
2018-02-02T01:37:41.365Z,17.41
2018-02-02T01:38:50.339Z,17.4
2018-02-02T01:39:59.045Z,17.43
2018-02-02T01:41:07.748Z,17.38
2018-02-02T01:42:16.456Z,17.38
2018-02-02T01:43:25.426Z,17.4
2018-02-02T01:44:34.404Z,17.37
2018-02-02T01:45:43.380Z,17.38
2018-02-02T01:46:52.348Z,17.4
2018-02-02T01:48:01.852Z,17.37
2018-02-02T01:49:10.561Z,17.33
2018-02-02T01:50:19.533Z,17.41
2018-02-02T01:51:28.235Z,17.38
2018-02-02T01:52:36.939Z,17.37
2018-02-02T01:53:45.651Z,17.4
2018-02-02T01:54:54.887Z,17.33
2018-02-02T01:56:03.860Z,17.43
2018-02-02T01:57:12.832Z,17.31
2018-02-02T01:58:21.802Z,17.37
2018-02-02T01:59:31.303Z,17.37
2018-02-02T02:00:40.008Z,17.38
2018-02-02T02:01:48.710Z,17.34
2018-02-02T02:02:57.684Z,17.41
2018-02-02T02:04:06.924Z,17.34
2018-02-02T02:05:15.891Z,17.37
2018-02-02T02:06:24.861Z,17.38
2018-02-02T02:07:33.831Z,17.3
2018-02-02T02:08:43.330Z,17.37
2018-02-02T02:09:52.567Z,17.38
2018-02-02T02:11:01.549Z,17.37
2018-02-02T02:12:10.518Z,17.28
2018-02-02T02:13:19.226Z,17.36
2018-02-02T02:14:28.199Z,17.34
2018-02-02T02:15:37.170Z,17.33
2018-02-02T02:16:46.414Z,17.41
2018-02-02T02:17:55.649Z,17.3
2018-02-02T02:19:04.622Z,17.38
2018-02-02T02:20:13.593Z,17.33
2018-02-02T02:21:22.296Z,17.36
2018-02-02T02:22:31.268Z,17.26
2018-02-02T02:23:40.242Z,17.3
2018-02-02T02:24:49.480Z,17.33
2018-02-02T02:25:58.716Z,17.34
2018-02-02T02:27:07.423Z,17.31
2018-02-02T02:28:16.394Z,17.3
2018-02-02T02:29:25.367Z,17.31
2018-02-02T02:30:34.407Z,17.23
2018-02-02T02:31:43.381Z,17.31
2018-02-02T02:32:52.354Z,17.28
2018-02-02T02:34:01.059Z,17.3
2018-02-02T02:35:10.029Z,17.31
2018-02-02T02:36:19.272Z,17.3
2018-02-02T02:37:28.509Z,17.28
2018-02-02T02:38:37.213Z,17.33
2018-02-02T02:39:46.724Z,17.28
2018-02-02T02:40:55.429Z,17.3
2018-02-02T02:42:04.405Z,17.28
2018-02-02T02:43:13.645Z,17.26
2018-02-02T02:44:22.350Z,17.33
2018-02-02T02:45:31.860Z,17.3
2018-02-02T02:46:40.625Z,17.3
2018-02-02T02:47:49.265Z,17.25
2018-02-02T02:48:57.968Z,17.31
2018-02-02T02:50:06.671Z,17.26
2018-02-02T02:51:16.180Z,17.26
2018-02-02T02:52:25.152Z,17.26
2018-02-02T02:53:34.125Z,17.21
2018-02-02T02:54:43.635Z,17.33
2018-02-02T02:55:53.145Z,17.26
2018-02-02T02:57:02.388Z,17.26
2018-02-02T02:58:11.629Z,17.26
2018-02-02T02:59:20.605Z,17.25
2018-02-02T03:00:29.847Z,17.28
2018-02-02T03:01:38.817Z,17.25
2018-02-02T03:02:47.790Z,17.26
2018-02-02T03:03:57.026Z,17.28
2018-02-02T03:05:05.994Z,17.26
2018-02-02T03:06:15.485Z,17.28
2018-02-02T03:07:24.450Z,17.25
2018-02-02T03:08:33.416Z,17.26
2018-02-02T03:09:42.110Z,17.3
2018-02-02T03:10:51.335Z,17.26
2018-02-02T03:12:00.294Z,17.23
2018-02-02T03:13:09.516Z,17.19
2018-02-02T03:14:18.475Z,17.23
2018-02-02T03:15:27.435Z,17.25
2018-02-02T03:16:36.654Z,17.26
2018-02-02T03:17:45.347Z,17.25
2018-02-02T03:18:54.304Z,17.28
2018-02-02T03:20:03.801Z,17.26
2018-02-02T03:21:12.496Z,17.25
2018-02-02T03:22:21.731Z,17.26
2018-02-02T03:23:30.956Z,17.21
2018-02-02T03:24:39.914Z,17.16
2018-02-02T03:25:48.605Z,17.19
2018-02-02T03:26:57.565Z,17.26
2018-02-02T03:28:06.528Z,17.23
2018-02-02T03:29:15.491Z,17.25
2018-02-02T03:30:24.719Z,17.26
2018-02-02T03:31:33.949Z,17.31
2018-02-02T03:32:43.444Z,17.3
2018-02-02T03:33:52.666Z,17.25
2018-02-02T03:35:01.625Z,17.21
2018-02-02T03:36:10.318Z,17.3
2018-02-02T03:37:19.276Z,17.28
2018-02-02T03:38:28.232Z,17.26
2018-02-02T03:39:36.925Z,17.22
2018-02-02T03:40:45.619Z,17.23
2018-02-02T03:41:54.578Z,17.3
2018-02-02T03:43:03.271Z,17.31
2018-02-02T03:44:12.767Z,17.3
2018-02-02T03:45:22.001Z,17.19
2018-02-02T03:46:31.226Z,17.21
2018-02-02T03:47:39.918Z,17.3
2018-02-02T03:48:48.610Z,17.21
2018-02-02T03:49:57.564Z,17.18
2018-02-02T03:51:06.260Z,17.28
2018-02-02T03:52:15.219Z,17.15
2018-02-02T03:53:24.444Z,17.16
2018-02-02T03:54:33.136Z,17.22
2018-02-02T03:55:42.889Z,17.22
2018-02-02T03:56:51.587Z,17.16
2018-02-02T03:58:00.548Z,17.14
2018-02-02T03:59:09.512Z,17.19
2018-02-02T04:00:18.470Z,17.16
2018-02-02T04:01:27.163Z,17.21
2018-02-02T04:02:35.855Z,17.19
2018-02-02T04:03:45.351Z,17.19
2018-02-02T04:04:54.042Z,17.15
2018-02-02T04:06:02.738Z,17.19
2018-02-02T04:07:11.962Z,17.23
2018-02-02T04:08:20.656Z,17.22
2018-02-02T04:09:29.348Z,17.21
2018-02-02T04:10:38.832Z,17.22
2018-02-02T04:11:48.056Z,17.19
2018-02-02T04:12:57.285Z,17.14
2018-02-02T04:14:06.246Z,17.18
2018-02-02T04:15:15.208Z,17.18
2018-02-02T04:16:24.694Z,17.21
2018-02-02T04:17:33.648Z,17.21
2018-02-02T04:18:42.343Z,17.22
2018-02-02T04:19:51.571Z,17.18
2018-02-02T04:21:00.802Z,17.16
2018-02-02T04:22:10.025Z,17.18
2018-02-02T04:23:18.984Z,17.16
2018-02-02T04:24:27.679Z,17.16
2018-02-02T04:25:37.213Z,17.16
2018-02-02T04:26:46.441Z,17.18
2018-02-02T04:27:55.395Z,17.18
2018-02-02T04:29:04.360Z,17.15
2018-02-02T04:30:13.320Z,17.15
2018-02-02T04:31:22.013Z,17.18
2018-02-02T04:32:30.976Z,17.12
2018-02-02T04:33:39.934Z,17.14
2018-02-02T04:34:48.903Z,17.21
2018-02-02T04:35:58.131Z,17.21
2018-02-02T04:37:07.092Z,17.16
2018-02-02T04:38:15.787Z,17.15
2018-02-02T04:39:25.014Z,17.19
2018-02-02T04:40:33.970Z,17.22
2018-02-02T04:41:42.669Z,17.18
2018-02-02T04:42:51.629Z,17.15
2018-02-02T04:44:00.324Z,17.15
2018-02-02T04:45:09.281Z,17.22
2018-02-02T04:46:18.239Z,17.19
2018-02-02T04:47:27.201Z,17.18
2018-02-02T04:48:35.894Z,17.22
2018-02-02T04:49:44.853Z,17.16
2018-02-02T04:50:54.088Z,17.18
2018-02-02T04:52:03.047Z,17.16
2018-02-02T04:53:12.010Z,17.16
2018-02-02T04:54:20.969Z,17.15
2018-02-02T04:55:29.924Z,17.18
2018-02-02T04:56:38.883Z,17.21
2018-02-02T04:57:48.109Z,17.18
2018-02-02T04:58:57.072Z,17.19
2018-02-02T05:00:06.037Z,17.19
2018-02-02T05:01:14.996Z,17.14
2018-02-02T05:02:23.956Z,17.16
2018-02-02T05:03:32.911Z,17.11
2018-02-02T05:04:42.135Z,17.18
2018-02-02T05:05:50.827Z,17.04
2018-02-02T05:06:59.521Z,17.18
2018-02-02T05:08:08.487Z,17.11
2018-02-02T05:09:17.179Z,17.11
2018-02-02T05:10:26.141Z,17.07
2018-02-02T05:11:34.836Z,17.11
2018-02-02T05:12:44.060Z,17.11
2018-02-02T05:13:53.023Z,17.07
2018-02-02T05:15:01.984Z,17.16
2018-02-02T05:16:10.946Z,17.14
2018-02-02T05:17:19.639Z,17.03
2018-02-02T05:18:28.334Z,17.06
2018-02-02T05:19:37.027Z,17.11
2018-02-02T05:20:45.991Z,17.06
2018-02-02T05:21:54.680Z,17.14
2018-02-02T05:23:04.173Z,17.11
2018-02-02T05:24:13.398Z,17.14
2018-02-02T05:25:22.889Z,17.07
2018-02-02T05:26:31.858Z,17.11
2018-02-02T05:27:41.080Z,17.14
2018-02-02T05:28:49.771Z,17.08
2018-02-02T05:29:58.728Z,17.21
2018-02-02T05:31:08.002Z,17.08
2018-02-02T05:32:17.485Z,17.19
2018-02-02T05:33:26.443Z,17.11
2018-02-02T05:34:35.397Z,17.07
2018-02-02T05:35:44.359Z,17.18
2018-02-02T05:36:53.327Z,17.15
2018-02-02T05:38:02.022Z,17.15
2018-02-02T05:39:10.979Z,17.08
2018-02-02T05:40:19.945Z,17.18
2018-02-02T05:41:29.173Z,17.18
2018-02-02T05:42:38.131Z,17.16
2018-02-02T05:43:46.823Z,17.18
2018-02-02T05:44:55.783Z,17.18
2018-02-02T05:46:04.741Z,17.15
2018-02-02T05:47:13.432Z,17.19
2018-02-02T05:48:22.389Z,17.14
2018-02-02T05:49:31.083Z,17.18
2018-02-02T05:50:40.580Z,17.19
2018-02-02T05:51:49.542Z,17.19
2018-02-02T05:52:58.775Z,17.22
2018-02-02T05:54:07.737Z,17.19
2018-02-02T05:55:17.225Z,17.15
2018-02-02T05:56:25.917Z,17.21
2018-02-02T05:57:35.196Z,17.25
2018-02-02T05:58:44.696Z,17.18
2018-02-02T05:59:53.652Z,17.16
2018-02-02T06:01:02.922Z,17.16
2018-02-02T06:02:11.879Z,17.16
2018-02-02T06:03:21.106Z,17.16
2018-02-02T06:04:30.069Z,17.21
2018-02-02T06:05:38.763Z,17.15
2018-02-02T06:06:47.729Z,17.15
2018-02-02T06:07:56.689Z,17.19
2018-02-02T06:09:05.652Z,17.15
2018-02-02T06:10:14.346Z,17.15
2018-02-02T06:11:23.309Z,17.21
2018-02-02T06:12:32.005Z,17.21
2018-02-02T06:13:41.231Z,17.15
2018-02-02T06:14:50.724Z,17.19
2018-02-02T06:15:59.952Z,17.21
2018-02-02T06:17:08.649Z,17.21
2018-02-02T06:18:17.603Z,17.15
2018-02-02T06:19:26.568Z,17.21
2018-02-02T06:20:35.528Z,17.18
2018-02-02T06:21:44.488Z,17.21
2018-02-02T06:22:53.712Z,17.21
2018-02-02T06:24:02.410Z,17.21
2018-02-02T06:25:11.367Z,17.21
2018-02-02T06:26:20.873Z,17.18
2018-02-02T06:27:29.570Z,17.22
2018-02-02T06:28:38.795Z,17.15
2018-02-02T06:29:48.550Z,17.15
2018-02-02T06:30:58.308Z,17.22
2018-02-02T06:32:07.807Z,17.21
2018-02-02T06:33:17.038Z,17.19
2018-02-02T06:34:25.992Z,17.18
2018-02-02T06:35:34.947Z,17.21
2018-02-02T06:36:43.639Z,17.19
2018-02-02T06:37:52.594Z,17.19
2018-02-02T06:39:02.082Z,17.25
2018-02-02T06:40:11.367Z,17.25
2018-02-02T06:41:20.594Z,17.19
2018-02-02T06:42:29.287Z,17.14
2018-02-02T06:43:38.246Z,17.18
2018-02-02T06:44:47.738Z,17.18
2018-02-02T06:45:56.695Z,17.18
2018-02-02T06:47:05.923Z,17.21
2018-02-02T06:48:14.884Z,17.21
2018-02-02T06:49:24.109Z,17.23
2018-02-02T06:50:33.072Z,17.15
2018-02-02T06:51:42.028Z,17.16
2018-02-02T06:52:50.988Z,17.28
2018-02-02T06:54:00.217Z,17.15
2018-02-02T06:55:09.441Z,17.18
2018-02-02T06:56:18.409Z,17.25
2018-02-02T06:57:27.635Z,17.31
2018-02-02T06:58:36.604Z,17.21
2018-02-02T06:59:45.826Z,17.19
2018-02-02T07:00:55.048Z,17.19
2018-02-02T07:02:04.007Z,17.16
2018-02-02T07:03:12.699Z,17.14
2018-02-02T07:04:22.461Z,17.25
2018-02-02T07:05:31.418Z,17.28
2018-02-02T07:06:40.117Z,17.25
2018-02-02T07:07:48.808Z,17.23
2018-02-02T07:08:58.038Z,17.15
2018-02-02T07:10:07.797Z,17.28
2018-02-02T07:11:17.084Z,17.15
2018-02-02T07:12:26.041Z,17.19
2018-02-02T07:13:35.268Z,17.19
2018-02-02T07:14:44.228Z,17.22
2018-02-02T07:15:53.454Z,17.26
2018-02-02T07:17:02.417Z,17.28
2018-02-02T07:18:11.379Z,17.22
2018-02-02T07:19:20.071Z,17.25
2018-02-02T07:20:29.033Z,17.33
2018-02-02T07:21:38.260Z,17.28
2018-02-02T07:22:47.219Z,17.18
2018-02-02T07:23:55.911Z,17.31
2018-02-02T07:25:04.870Z,17.21
2018-02-02T07:26:13.560Z,17.28
2018-02-02T07:27:22.258Z,17.26
2018-02-02T07:28:30.953Z,17.26
2018-02-02T07:29:40.441Z,17.26
2018-02-02T07:30:49.401Z,17.19
2018-02-02T07:31:58.902Z,17.31
2018-02-02T07:33:08.134Z,17.21
2018-02-02T07:34:17.887Z,17.26
2018-02-02T07:35:27.115Z,17.26
2018-02-02T07:36:36.075Z,17.23
2018-02-02T07:37:45.299Z,17.18
2018-02-02T07:38:54.258Z,17.31
2018-02-02T07:40:04.020Z,17.3
2018-02-02T07:41:13.053Z,17.18
2018-02-02T07:42:21.744Z,17.21
2018-02-02T07:43:30.704Z,17.23
2018-02-02T07:44:39.399Z,17.22
2018-02-02T07:45:48.398Z,17.3
2018-02-02T07:46:57.056Z,17.21
2018-02-02T07:48:06.291Z,17.26
2018-02-02T07:49:15.256Z,17.25
2018-02-02T07:50:24.108Z,17.21
2018-02-02T07:51:33.159Z,17.26
2018-02-02T07:52:41.857Z,17.25
2018-02-02T07:53:50.566Z,17.3
2018-02-02T07:54:59.251Z,17.21
2018-02-02T07:56:08.478Z,17.21
2018-02-02T07:57:17.596Z,17.23
2018-02-02T07:58:26.644Z,17.21
2018-02-02T07:59:35.338Z,17.28
2018-02-02T08:00:44.305Z,17.21
2018-02-02T08:01:53.267Z,17.25
2018-02-02T08:03:01.962Z,17.26
2018-02-02T08:04:10.926Z,17.28
2018-02-02T08:05:19.624Z,17.26
2018-02-02T08:06:28.319Z,17.21
2018-02-02T08:07:37.549Z,17.28
2018-02-02T08:08:47.045Z,17.28
2018-02-02T08:09:56.264Z,17.28
2018-02-02T08:11:04.961Z,17.25
2018-02-02T08:12:13.657Z,17.21
2018-02-02T08:13:22.619Z,17.25
2018-02-02T08:14:31.317Z,17.33
2018-02-02T08:15:40.011Z,17.26
2018-02-02T08:16:49.238Z,17.26
2018-02-02T08:17:58.741Z,17.25
2018-02-02T08:19:07.701Z,17.26
2018-02-02T08:20:16.404Z,17.21
2018-02-02T08:21:25.365Z,17.3
2018-02-02T08:22:34.593Z,17.21
2018-02-02T08:23:43.552Z,17.23
2018-02-02T08:24:53.048Z,17.28
2018-02-02T08:26:02.007Z,17.3
2018-02-02T08:27:11.232Z,17.22
2018-02-02T08:28:20.237Z,17.22
2018-02-02T08:29:29.199Z,17.23
2018-02-02T08:30:37.893Z,17.31
2018-02-02T08:31:46.856Z,17.21
2018-02-02T08:32:55.813Z,17.25
2018-02-02T08:34:05.047Z,17.22
2018-02-02T08:35:14.323Z,17.33
2018-02-02T08:36:23.286Z,17.3
2018-02-02T08:37:32.512Z,17.26
2018-02-02T08:38:41.473Z,17.26
2018-02-02T08:39:50.433Z,17.33
2018-02-02T08:40:59.126Z,17.28
2018-02-02T08:42:08.355Z,17.28
2018-02-02T08:43:17.051Z,17.28
2018-02-02T08:44:26.810Z,17.37
2018-02-02T08:45:35.770Z,17.28
2018-02-02T08:46:44.731Z,17.36
2018-02-02T08:47:53.956Z,17.3
2018-02-02T08:49:02.654Z,17.31
2018-02-02T08:50:11.352Z,17.36
2018-02-02T08:51:20.044Z,17.3
2018-02-02T08:52:28.736Z,17.26
2018-02-02T08:53:38.237Z,17.28
2018-02-02T08:54:47.462Z,17.37
2018-02-02T08:55:56.160Z,17.4
2018-02-02T08:57:05.124Z,17.33
2018-02-02T08:58:14.375Z,17.34
2018-02-02T08:59:23.332Z,17.4
2018-02-02T09:00:32.552Z,17.31
2018-02-02T09:01:41.783Z,17.36
2018-02-02T09:02:50.788Z,17.3
2018-02-02T09:03:59.480Z,17.31
2018-02-02T09:05:08.177Z,17.33
2018-02-02T09:06:17.137Z,17.37
2018-02-02T09:07:26.363Z,17.34
2018-02-02T09:08:35.323Z,17.37
2018-02-02T09:09:44.279Z,17.4
2018-02-02T09:10:53.500Z,17.37
2018-02-02T09:12:02.460Z,17.36
2018-02-02T09:13:11.419Z,17.37
2018-02-02T09:14:20.382Z,17.34
2018-02-02T09:15:29.612Z,17.31
2018-02-02T09:16:38.620Z,17.31
2018-02-02T09:17:47.855Z,17.36
2018-02-02T09:18:56.841Z,17.4
2018-02-02T09:20:06.035Z,17.31
2018-02-02T09:21:15.390Z,17.37
2018-02-02T09:22:25.660Z,17.41
2018-02-02T09:23:35.101Z,17.37
2018-02-02T09:24:44.451Z,17.36
2018-02-02T09:25:53.411Z,17.37
2018-02-02T09:27:02.376Z,17.38
2018-02-02T09:28:11.862Z,17.36
2018-02-02T09:29:21.096Z,17.34
2018-02-02T09:30:30.327Z,17.4
2018-02-02T09:31:39.282Z,17.36
2018-02-02T09:32:48.293Z,17.44
2018-02-02T09:33:57.797Z,17.41
2018-02-02T09:35:06.757Z,17.41
2018-02-02T09:36:15.718Z,17.44
2018-02-02T09:37:24.681Z,17.37
2018-02-02T09:38:33.636Z,17.36
2018-02-02T09:39:42.601Z,17.36
2018-02-02T09:40:51.561Z,17.41
2018-02-02T09:42:00.553Z,17.43
2018-02-02T09:43:09.494Z,17.34
2018-02-02T09:44:18.188Z,17.36
2018-02-02T09:45:26.885Z,17.34
2018-02-02T09:46:35.846Z,17.3
2018-02-02T09:47:45.073Z,17.25
2018-02-02T09:48:53.772Z,17.25
2018-02-02T09:50:02.467Z,17.31
2018-02-02T09:51:11.429Z,17.14
2018-02-02T09:52:20.392Z,17.25
2018-02-02T09:53:29.081Z,17.3
2018-02-02T09:54:38.046Z,17.12
2018-02-02T09:55:47.012Z,17.18
2018-02-02T09:56:55.981Z,17.08
2018-02-02T09:58:04.940Z,17.06
2018-02-02T09:59:13.902Z,17.06
2018-02-02T10:00:22.862Z,17.07
2018-02-02T10:01:32.087Z,17.18
2018-02-02T10:02:41.318Z,17.21
2018-02-02T10:03:50.011Z,17.18
2018-02-02T10:04:58.709Z,17.19
2018-02-02T10:06:07.938Z,17.16
2018-02-02T10:07:16.632Z,17.18
2018-02-02T10:08:25.325Z,17.15
2018-02-02T10:09:34.561Z,17.18
2018-02-02T10:10:44.053Z,17.21
2018-02-02T10:11:53.016Z,17.14
2018-02-02T10:13:01.742Z,17.16
2018-02-02T10:14:10.704Z,17.16
2018-02-02T10:15:19.397Z,17.18
2018-02-02T10:16:28.631Z,17.19
2018-02-02T10:17:37.589Z,17.22
2018-02-02T10:18:46.871Z,17.21
2018-02-02T10:19:56.099Z,17.14
2018-02-02T10:21:05.597Z,17.21
2018-02-02T10:22:14.556Z,17.19
2018-02-02T10:23:23.282Z,17.26
2018-02-02T10:24:32.243Z,17.22
2018-02-02T10:25:41.207Z,17.25
2018-02-02T10:26:49.900Z,17.26
2018-02-02T10:27:58.862Z,17.3
2018-02-02T10:29:08.358Z,17.26
2018-02-02T10:30:17.314Z,17.28
2018-02-02T10:31:26.274Z,17.37
2018-02-02T10:32:34.970Z,17.33
2018-02-02T10:33:43.946Z,17.36
2018-02-02T10:34:52.639Z,17.34
2018-02-02T10:36:01.333Z,17.36
2018-02-02T10:37:10.594Z,17.4
2018-02-02T10:38:20.056Z,17.38
2018-02-02T10:39:29.283Z,17.38
2018-02-02T10:40:38.511Z,17.4
2018-02-02T10:41:47.469Z,17.36
2018-02-02T10:42:56.700Z,17.44
2018-02-02T10:44:05.942Z,17.41
2018-02-02T10:45:15.438Z,17.43
2018-02-02T10:46:24.466Z,17.4
2018-02-02T10:47:33.424Z,17.4
2018-02-02T10:48:42.117Z,17.41
2018-02-02T10:49:51.381Z,17.46
2018-02-02T10:51:00.343Z,17.4
2018-02-02T10:52:09.565Z,17.43
2018-02-02T10:53:18.260Z,17.44
2018-02-02T10:54:27.218Z,17.43
2018-02-02T10:55:36.724Z,17.4
2018-02-02T10:56:45.418Z,17.43
2018-02-02T10:57:54.381Z,17.41
2018-02-02T10:59:03.078Z,17.43
2018-02-02T11:00:12.302Z,17.48
2018-02-02T11:01:21.528Z,17.48
2018-02-02T11:02:31.025Z,17.54
2018-02-02T11:03:40.255Z,17.52
2018-02-02T11:04:49.220Z,17.54
2018-02-02T11:05:58.180Z,17.52
2018-02-02T11:07:07.938Z,17.54
2018-02-02T11:08:17.165Z,17.56
2018-02-02T11:09:26.127Z,17.58
2018-02-02T11:10:35.354Z,17.55
2018-02-02T11:11:44.315Z,17.56
2018-02-02T11:12:53.272Z,17.62
2018-02-02T11:14:02.227Z,17.59
2018-02-02T11:15:10.976Z,17.64
2018-02-02T11:16:19.874Z,17.66
2018-02-02T11:17:29.101Z,17.62
2018-02-02T11:18:37.794Z,17.54
2018-02-02T11:19:46.757Z,17.75
2018-02-02T11:20:55.445Z,17.7
2018-02-02T11:22:04.938Z,17.77
2018-02-02T11:23:13.903Z,17.64
2018-02-02T11:24:22.599Z,17.71
2018-02-02T11:25:31.830Z,17.66
2018-02-02T11:26:40.789Z,17.74
2018-02-02T11:27:49.750Z,17.68
2018-02-02T11:28:58.708Z,17.68
2018-02-02T11:30:07.928Z,17.74
2018-02-02T11:31:16.621Z,17.7
2018-02-02T11:32:25.851Z,17.68
2018-02-02T11:33:34.812Z,17.74
2018-02-02T11:34:43.505Z,17.77
2018-02-02T11:35:52.466Z,17.7
2018-02-02T11:37:01.966Z,17.71
2018-02-02T11:38:10.665Z,17.74
2018-02-02T11:39:19.889Z,17.7
2018-02-02T11:40:28.852Z,17.71
2018-02-02T11:41:37.812Z,17.72
2018-02-02T11:42:46.503Z,17.72
2018-02-02T11:43:55.463Z,17.74
2018-02-02T11:45:04.690Z,17.71
2018-02-02T11:46:13.389Z,17.72
2018-02-02T11:47:22.086Z,17.74
2018-02-02T11:48:31.583Z,17.72
2018-02-02T11:49:40.286Z,17.66
2018-02-02T11:50:49.513Z,17.7
2018-02-02T11:51:58.740Z,17.74
2018-02-02T11:53:07.703Z,17.81
2018-02-02T11:54:17.198Z,17.75
2018-02-02T11:55:26.687Z,17.74
2018-02-02T11:56:36.440Z,17.79
2018-02-02T11:57:45.403Z,17.71
2018-02-02T11:58:54.362Z,17.86
2018-02-02T12:00:03.586Z,17.84
2018-02-02T12:01:12.553Z,17.72
2018-02-02T12:02:21.248Z,17.74
2018-02-02T12:03:30.207Z,17.82
2018-02-02T12:04:38.900Z,17.84
2018-02-02T12:05:47.596Z,17.82
2018-02-02T12:06:56.559Z,17.84
2018-02-02T12:08:05.787Z,17.89
2018-02-02T12:09:15.284Z,17.93
2018-02-02T12:10:24.243Z,17.9
2018-02-02T12:11:34.006Z,17.96
2018-02-02T12:12:42.969Z,17.86
2018-02-02T12:13:52.194Z,17.86
2018-02-02T12:15:00.886Z,17.89
2018-02-02T12:16:09.582Z,17.87
2018-02-02T12:17:18.541Z,17.95
2018-02-02T12:18:27.495Z,17.99
2018-02-02T12:19:36.455Z,17.89
2018-02-02T12:20:45.151Z,17.96
2018-02-02T12:21:54.390Z,17.92
2018-02-02T12:23:03.337Z,17.97
2018-02-02T12:24:12.296Z,18
2018-02-02T12:25:21.261Z,18.03
2018-02-02T12:26:29.953Z,18.07
2018-02-02T12:27:38.915Z,17.99
2018-02-02T12:28:47.874Z,17.96
2018-02-02T12:29:56.834Z,18.02
2018-02-02T12:31:06.061Z,17.99
2018-02-02T12:32:15.021Z,18
2018-02-02T12:33:23.710Z,17.96
2018-02-02T12:34:32.402Z,18
2018-02-02T12:35:41.899Z,17.97
2018-02-02T12:36:50.857Z,17.86
2018-02-02T12:37:59.815Z,17.86
2018-02-02T12:39:08.779Z,17.92
2018-02-02T12:40:17.738Z,17.87
2018-02-02T12:41:26.699Z,17.86
2018-02-02T12:42:35.982Z,17.9
2018-02-02T12:43:45.208Z,17.92
2018-02-02T12:44:53.901Z,17.95
2018-02-02T12:46:02.901Z,17.93
2018-02-02T12:47:11.865Z,17.89
2018-02-02T12:48:21.094Z,17.87
2018-02-02T12:49:30.315Z,17.86
2018-02-02T12:50:39.539Z,17.86
2018-02-02T12:51:48.498Z,17.87
2018-02-02T12:52:58.848Z,17.93
2018-02-02T12:54:07.810Z,17.97
2018-02-02T12:55:16.507Z,17.96
2018-02-02T12:56:25.468Z,17.95
2018-02-02T12:57:34.964Z,17.93
2018-02-02T12:58:44.190Z,17.93
2018-02-02T12:59:53.413Z,17.89
2018-02-02T13:01:02.927Z,17.95
2018-02-02T13:02:11.887Z,17.97
2018-02-02T13:03:20.580Z,17.93
2018-02-02T13:04:29.546Z,17.99
2018-02-02T13:05:38.242Z,17.96
2018-02-02T13:06:46.938Z,18.02
2018-02-02T13:07:55.898Z,17.99
2018-02-02T13:09:04.861Z,18.02
2018-02-02T13:10:14.094Z,17.89
2018-02-02T13:11:23.583Z,17.93
2018-02-02T13:12:32.808Z,17.95
2018-02-02T13:13:42.035Z,17.99
2018-02-02T13:14:51.260Z,17.97
2018-02-02T13:15:59.952Z,17.87
2018-02-02T13:17:08.645Z,17.99
2018-02-02T13:18:17.606Z,17.97
2018-02-02T13:19:26.565Z,17.86
2018-02-02T13:20:35.786Z,17.92
2018-02-02T13:21:44.478Z,17.95
2018-02-02T13:22:53.455Z,17.86
2018-02-02T13:24:02.150Z,17.9
2018-02-02T13:25:11.112Z,17.87
2018-02-02T13:26:20.341Z,17.89
2018-02-02T13:27:29.835Z,17.87
2018-02-02T13:28:39.067Z,17.86
2018-02-02T13:29:48.030Z,17.87
2018-02-02T13:30:57.256Z,17.86
2018-02-02T13:32:05.955Z,17.89
2018-02-02T13:33:14.652Z,17.9
2018-02-02T13:34:23.670Z,17.89
2018-02-02T13:35:32.965Z,17.9
2018-02-02T13:36:41.996Z,17.86
2018-02-02T13:37:50.706Z,17.87
2018-02-02T13:38:59.679Z,17.87
2018-02-02T13:40:08.919Z,17.9
2018-02-02T13:41:17.890Z,17.9
2018-02-02T13:42:26.871Z,17.92
2018-02-02T13:43:35.622Z,17.93
2018-02-02T13:44:45.415Z,17.89
2018-02-02T13:45:54.137Z,17.93
2018-02-02T13:47:03.684Z,17.82
2018-02-02T13:48:12.916Z,17.86
2018-02-02T13:49:21.890Z,17.87
2018-02-02T13:50:31.126Z,17.87
2018-02-02T13:51:40.633Z,17.86
2018-02-02T13:52:49.598Z,17.97
2018-02-02T13:53:58.314Z,17.95
2018-02-02T13:55:07.286Z,17.92
2018-02-02T13:56:16.258Z,17.92
2018-02-02T13:57:25.225Z,17.86
2018-02-02T13:58:33.931Z,17.87
2018-02-02T13:59:42.907Z,17.92
2018-02-02T14:00:52.145Z,17.87
2018-02-02T14:02:00.857Z,17.81
2018-02-02T14:03:09.840Z,17.84
2018-02-02T14:04:19.074Z,17.82
2018-02-02T14:05:28.318Z,17.82
2018-02-02T14:06:37.026Z,17.92
2018-02-02T14:07:46.021Z,17.96
2018-02-02T14:08:55.232Z,17.97
2018-02-02T14:10:04.468Z,17.84
2018-02-02T14:11:13.969Z,17.96
2018-02-02T14:12:22.709Z,17.96
2018-02-02T14:13:31.409Z,17.87
2018-02-02T14:14:40.369Z,17.92
2018-02-02T14:15:49.597Z,17.84
2018-02-02T14:16:58.293Z,17.81
2018-02-02T14:18:07.788Z,17.9
2018-02-02T14:19:16.748Z,17.89
2018-02-02T14:20:25.441Z,17.86
2018-02-02T14:21:34.133Z,17.86
2018-02-02T14:22:43.092Z,17.84
2018-02-02T14:23:52.053Z,17.92
2018-02-02T14:25:00.742Z,17.9
2018-02-02T14:26:09.435Z,17.86
2018-02-02T14:27:18.661Z,17.87
2018-02-02T14:28:27.623Z,17.92
2018-02-02T14:29:36.318Z,17.89
2018-02-02T14:30:45.031Z,17.87
2018-02-02T14:31:54.523Z,17.87
2018-02-02T14:33:03.482Z,17.84
2018-02-02T14:34:12.447Z,17.84
2018-02-02T14:35:21.679Z,17.86
2018-02-02T14:36:30.374Z,17.9
2018-02-02T14:37:39.334Z,17.87
2018-02-02T14:38:48.562Z,17.9
2018-02-02T14:39:57.255Z,17.84
2018-02-02T14:41:05.946Z,17.86
2018-02-02T14:42:14.910Z,17.87
2018-02-02T14:43:23.608Z,17.87
2018-02-02T14:44:32.895Z,17.95
2018-02-02T14:45:41.857Z,17.87
2018-02-02T14:46:50.812Z,17.89
2018-02-02T14:47:59.771Z,17.87
2018-02-02T14:49:08.993Z,17.86
2018-02-02T14:50:17.686Z,17.9
2018-02-02T14:51:26.910Z,17.87
2018-02-02T14:52:35.868Z,17.89
2018-02-02T14:53:44.830Z,17.92